sensor_id;sensor_type;location;lat;lon;timestamp;pressure;altitude;pressure_sealevel;temperature;humidity
15678;BME280;7939;50.814;6.368;2023-03-20T00:02:10;100271.53;;;14.75;57.10
15678;BME280;7939;50.814;6.368;2023-03-20T00:04:42;100268.09;;;14.75;56.87
15678;BME280;7939;50.814;6.368;2023-03-20T00:07:10;100268.09;;;14.76;56.33
15678;BME280;7939;50.814;6.368;2023-03-20T00:09:37;100268.09;;;14.75;56.76
15678;BME280;7939;50.814;6.368;2023-03-20T00:12:04;100266.44;;;14.71;56.46
15678;BME280;7939;50.814;6.368;2023-03-20T00:14:33;100267.28;;;14.70;56.75
15678;BME280;7939;50.814;6.368;2023-03-20T00:16:59;100275.88;;;14.69;56.27
15678;BME280;7939;50.814;6.368;2023-03-20T00:19:27;100276.75;;;14.68;56.64
15678;BME280;7939;50.814;6.368;2023-03-20T00:21:56;100280.16;;;14.68;57.15
15678;BME280;7939;50.814;6.368;2023-03-20T00:24:24;100275.91;;;14.67;56.47
15678;BME280;7939;50.814;6.368;2023-03-20T00:26:51;100278.50;;;14.66;56.62
15678;BME280;7939;50.814;6.368;2023-03-20T00:29:21;100277.66;;;14.62;56.54
15678;BME280;7939;50.814;6.368;2023-03-20T00:31:48;100286.22;;;14.63;56.96
15678;BME280;7939;50.814;6.368;2023-03-20T00:34:17;100293.09;;;14.62;56.66
15678;BME280;7939;50.814;6.368;2023-03-20T00:36:44;100289.69;;;14.60;56.96
15678;BME280;7939;50.814;6.368;2023-03-20T00:39:11;100296.53;;;14.61;56.34
15678;BME280;7939;50.814;6.368;2023-03-20T00:41:42;100296.56;;;14.60;56.92
15678;BME280;7939;50.814;6.368;2023-03-20T00:44:20;100289.72;;;14.59;56.62
15678;BME280;7939;50.814;6.368;2023-03-20T00:46:51;100289.69;;;14.57;56.33
15678;BME280;7939;50.814;6.368;2023-03-20T00:49:20;100284.56;;;14.55;56.60
15678;BME280;7939;50.814;6.368;2023-03-20T00:51:48;100292.28;;;14.55;56.71
15678;BME280;7939;50.814;6.368;2023-03-20T00:54:16;100288.91;;;14.52;55.94
15678;BME280;7939;50.814;6.368;2023-03-20T00:56:47;100289.75;;;14.51;56.85
15678;BME280;7939;50.814;6.368;2023-03-20T00:59:20;100298.34;;;14.48;56.56
15678;BME280;7939;50.814;6.368;2023-03-20T01:01:48;100295.75;;;14.45;56.48
15678;BME280;7939;50.814;6.368;2023-03-20T01:04:16;100300.06;;;14.42;56.24
15678;BME280;7939;50.814;6.368;2023-03-20T01:06:43;100292.38;;;14.42;56.60
15678;BME280;7939;50.814;6.368;2023-03-20T01:09:10;100295.81;;;14.41;55.88
15678;BME280;7939;50.814;6.368;2023-03-20T01:11:37;100298.38;;;14.41;56.16
15678;BME280;7939;50.814;6.368;2023-03-20T01:14:12;100294.97;;;14.40;56.78
15678;BME280;7939;50.814;6.368;2023-03-20T01:16:40;100293.22;;;14.41;56.34
15678;BME280;7939;50.814;6.368;2023-03-20T01:19:09;100288.09;;;14.41;56.44
15678;BME280;7939;50.814;6.368;2023-03-20T01:21:37;100279.50;;;14.39;55.91
15678;BME280;7939;50.814;6.368;2023-03-20T01:24:04;100261.56;;;14.36;55.89
15678;BME280;7939;50.814;6.368;2023-03-20T01:26:33;100265.81;;;14.37;56.70
15678;BME280;7939;50.814;6.368;2023-03-20T01:29:00;100266.66;;;14.39;56.32
15678;BME280;7939;50.814;6.368;2023-03-20T01:31:28;100257.25;;;14.36;55.99
15678;BME280;7939;50.814;6.368;2023-03-20T01:33:55;100258.97;;;14.37;56.46
15678;BME280;7939;50.814;6.368;2023-03-20T01:36:22;100255.53;;;14.37;56.49
15678;BME280;7939;50.814;6.368;2023-03-20T01:38:53;100251.28;;;14.36;56.45
15678;BME280;7939;50.814;6.368;2023-03-20T01:41:22;100251.28;;;14.36;55.82
15678;BME280;7939;50.814;6.368;2023-03-20T01:43:49;100244.38;;;14.38;56.74
15678;BME280;7939;50.814;6.368;2023-03-20T01:46:18;100240.97;;;14.36;56.37
15678;BME280;7939;50.814;6.368;2023-03-20T01:48:59;100234.16;;;14.35;56.67
15678;BME280;7939;50.814;6.368;2023-03-20T01:51:30;100246.16;;;14.34;56.13
15678;BME280;7939;50.814;6.368;2023-03-20T01:53:59;100252.16;;;14.33;56.90
15678;BME280;7939;50.814;6.368;2023-03-20T01:56:30;100259.88;;;14.33;56.65
15678;BME280;7939;50.814;6.368;2023-03-20T01:58:59;100265.84;;;14.32;56.73
15678;BME280;7939;50.814;6.368;2023-03-20T02:01:28;100271.00;;;14.32;55.71
15678;BME280;7939;50.814;6.368;2023-03-20T02:03:56;100273.56;;;14.32;56.42
15678;BME280;7939;50.814;6.368;2023-03-20T02:06:23;100266.75;;;14.28;56.10
15678;BME280;7939;50.814;6.368;2023-03-20T02:08:51;100268.47;;;14.27;56.49
15678;BME280;7939;50.814;6.368;2023-03-20T02:11:20;100274.47;;;14.28;56.31
15678;BME280;7939;50.814;6.368;2023-03-20T02:13:50;100277.91;;;14.27;56.34
15678;BME280;7939;50.814;6.368;2023-03-20T02:16:18;100270.19;;;14.27;56.69
15678;BME280;7939;50.814;6.368;2023-03-20T02:18:46;100253.06;;;14.27;57.00
15678;BME280;7939;50.814;6.368;2023-03-20T02:21:34;100239.34;;;14.25;57.02
15678;BME280;7939;50.814;6.368;2023-03-20T02:24:45;100253.91;;;14.25;56.76
15678;BME280;7939;50.814;6.368;2023-03-20T02:27:22;100267.63;;;14.24;57.23
15678;BME280;7939;50.814;6.368;2023-03-20T02:30:11;100264.22;;;14.23;57.24
15678;BME280;7939;50.814;6.368;2023-03-20T02:36:03;100252.25;;;14.21;56.73
15678;BME280;7939;50.814;6.368;2023-03-20T02:38:57;100256.50;;;14.20;57.00
15678;BME280;7939;50.814;6.368;2023-03-20T02:41:30;100259.09;;;14.19;56.85
15678;BME280;7939;50.814;6.368;2023-03-20T02:44:03;100260.81;;;14.18;56.34
15678;BME280;7939;50.814;6.368;2023-03-20T02:46:41;100259.13;;;14.17;56.59
15678;BME280;7939;50.814;6.368;2023-03-20T02:49:17;100258.25;;;14.17;57.28
15678;BME280;7939;50.814;6.368;2023-03-20T02:51:57;100260.84;;;14.15;56.94
15678;BME280;7939;50.814;6.368;2023-03-20T02:54:32;100268.56;;;14.14;57.48
15678;BME280;7939;50.814;6.368;2023-03-20T02:57:07;100263.44;;;14.12;56.88
15678;BME280;7939;50.814;6.368;2023-03-20T02:59:42;100266.00;;;14.11;56.92
15678;BME280;7939;50.814;6.368;2023-03-20T03:02:15;100262.59;;;14.10;56.96
15678;BME280;7939;50.814;6.368;2023-03-20T03:04:48;100252.34;;;14.09;57.15
15678;BME280;7939;50.814;6.368;2023-03-20T03:07:18;100262.59;;;14.07;56.95
15678;BME280;7939;50.814;6.368;2023-03-20T03:09:51;100246.34;;;14.05;56.89
15678;BME280;7939;50.814;6.368;2023-03-20T03:12:22;100233.50;;;14.05;56.86
15678;BME280;7939;50.814;6.368;2023-03-20T03:14:53;100236.06;;;14.05;56.98
15678;BME280;7939;50.814;6.368;2023-03-20T03:17:22;100229.22;;;14.04;57.29
15678;BME280;7939;50.814;6.368;2023-03-20T03:19:53;100233.53;;;14.03;56.90
15678;BME280;7939;50.814;6.368;2023-03-20T03:22:21;100253.22;;;14.01;56.82
15678;BME280;7939;50.814;6.368;2023-03-20T03:24:51;100262.66;;;13.99;57.44
15678;BME280;7939;50.814;6.368;2023-03-20T03:27:21;100275.50;;;13.99;57.00
15678;BME280;7939;50.814;6.368;2023-03-20T03:29:51;100271.22;;;13.98;57.53
15678;BME280;7939;50.814;6.368;2023-03-20T03:32:23;100273.81;;;13.97;57.27
15678;BME280;7939;50.814;6.368;2023-03-20T03:34:51;100284.97;;;13.96;56.97
15678;BME280;7939;50.814;6.368;2023-03-20T03:37:25;100284.94;;;13.94;57.18
15678;BME280;7939;50.814;6.368;2023-03-20T03:40:02;100295.25;;;13.93;57.71
15678;BME280;7939;50.814;6.368;2023-03-20T03:42:34;100295.25;;;13.93;56.84
15678;BME280;7939;50.814;6.368;2023-03-20T03:45:07;100291.84;;;13.91;57.53
15678;BME280;7939;50.814;6.368;2023-03-20T03:47:38;100297.81;;;13.88;56.56
15678;BME280;7939;50.814;6.368;2023-03-20T03:50:09;100290.13;;;13.88;57.33
15678;BME280;7939;50.814;6.368;2023-03-20T03:52:39;100291.00;;;13.87;56.44
15678;BME280;7939;50.814;6.368;2023-03-20T03:55:10;100285.84;;;13.87;56.95
15678;BME280;7939;50.814;6.368;2023-03-20T03:57:42;100291.84;;;13.86;57.53
15678;BME280;7939;50.814;6.368;2023-03-20T04:00:13;100293.59;;;13.84;56.77
15678;BME280;7939;50.814;6.368;2023-03-20T04:02:44;100291.00;;;13.83;57.59
15678;BME280;7939;50.814;6.368;2023-03-20T04:05:12;100286.72;;;13.82;57.59
15678;BME280;7939;50.814;6.368;2023-03-20T04:07:43;100278.16;;;13.81;57.19
15678;BME280;7939;50.814;6.368;2023-03-20T04:10:12;100273.06;;;13.80;57.49
15678;BME280;7939;50.814;6.368;2023-03-20T04:12:40;100280.75;;;13.80;57.45
15678;BME280;7939;50.814;6.368;2023-03-20T04:15:08;100269.66;;;13.77;57.81
15678;BME280;7939;50.814;6.368;2023-03-20T04:17:35;100267.94;;;13.78;57.20
15678;BME280;7939;50.814;6.368;2023-03-20T04:20:02;100266.22;;;13.77;56.92
15678;BME280;7939;50.814;6.368;2023-03-20T04:22:29;100263.66;;;13.77;57.45
15678;BME280;7939;50.814;6.368;2023-03-20T04:24:59;100259.34;;;13.76;56.75
15678;BME280;7939;50.814;6.368;2023-03-20T04:27:27;100255.09;;;13.75;57.28
15678;BME280;7939;50.814;6.368;2023-03-20T04:29:54;100245.69;;;13.74;57.64
15678;BME280;7939;50.814;6.368;2023-03-20T04:32:21;100246.53;;;13.74;57.63
15678;BME280;7939;50.814;6.368;2023-03-20T04:34:48;100249.09;;;13.74;57.55
15678;BME280;7939;50.814;6.368;2023-03-20T04:37:16;100253.41;;;13.72;57.23
15678;BME280;7939;50.814;6.368;2023-03-20T04:39:43;100255.13;;;13.72;57.98
15678;BME280;7939;50.814;6.368;2023-03-20T04:42:10;100254.25;;;13.70;57.53
15678;BME280;7939;50.814;6.368;2023-03-20T04:44:39;100263.69;;;13.69;57.50
15678;BME280;7939;50.814;6.368;2023-03-20T04:47:05;100273.09;;;13.69;57.99
15678;BME280;7939;50.814;6.368;2023-03-20T04:49:32;100276.53;;;13.68;56.94
15678;BME280;7939;50.814;6.368;2023-03-20T04:51:58;100261.13;;;13.66;58.04
15678;BME280;7939;50.814;6.368;2023-03-20T04:54:25;100263.69;;;13.66;57.86
15678;BME280;7939;50.814;6.368;2023-03-20T04:56:51;100269.72;;;13.65;58.16
15678;BME280;7939;50.814;6.368;2023-03-20T04:59:18;100267.13;;;13.64;58.07
15678;BME280;7939;50.814;6.368;2023-03-20T05:01:46;100270.56;;;13.63;57.12
15678;BME280;7939;50.814;6.368;2023-03-20T05:04:13;100274.84;;;13.61;58.13
15678;BME280;7939;50.814;6.368;2023-03-20T05:06:39;100268.84;;;13.62;57.87
15678;BME280;7939;50.814;6.368;2023-03-20T05:09:08;100261.16;;;13.60;57.80
15678;BME280;7939;50.814;6.368;2023-03-20T05:11:35;100257.72;;;13.61;57.21
15678;BME280;7939;50.814;6.368;2023-03-20T05:14:01;100253.47;;;13.60;57.34
15678;BME280;7939;50.814;6.368;2023-03-20T05:16:29;100256.91;;;13.59;57.03
15678;BME280;7939;50.814;6.368;2023-03-20T05:18:57;100256.91;;;13.58;57.42
15678;BME280;7939;50.814;6.368;2023-03-20T05:21:24;100255.19;;;13.58;57.82
15678;BME280;7939;50.814;6.368;2023-03-20T05:23:51;100262.03;;;13.56;58.00
15678;BME280;7939;50.814;6.368;2023-03-20T05:26:18;100255.19;;;13.55;57.75
15678;BME280;7939;50.814;6.368;2023-03-20T05:28:45;100255.19;;;13.55;57.83
15678;BME280;7939;50.814;6.368;2023-03-20T05:31:11;100252.63;;;13.54;57.40
15678;BME280;7939;50.814;6.368;2023-03-20T05:33:38;100257.78;;;13.52;57.17
15678;BME280;7939;50.814;6.368;2023-03-20T05:36:08;100257.78;;;13.50;57.94
15678;BME280;7939;50.814;6.368;2023-03-20T05:38:35;100256.06;;;13.49;57.81
15678;BME280;7939;50.814;6.368;2023-03-20T05:41:02;100249.22;;;13.48;58.33
15678;BME280;7939;50.814;6.368;2023-03-20T05:43:28;100246.66;;;13.48;57.49
15678;BME280;7939;50.814;6.368;2023-03-20T05:45:56;100240.69;;;13.48;57.98
15678;BME280;7939;50.814;6.368;2023-03-20T05:48:23;100244.97;;;13.47;58.00
15678;BME280;7939;50.814;6.368;2023-03-20T05:50:49;100244.97;;;13.47;58.03
15678;BME280;7939;50.814;6.368;2023-03-20T05:53:17;100247.53;;;13.47;57.96
15678;BME280;7939;50.814;6.368;2023-03-20T05:55:44;100255.25;;;13.46;57.16
15678;BME280;7939;50.814;6.368;2023-03-20T05:58:10;100262.94;;;13.46;58.25
15678;BME280;7939;50.814;6.368;2023-03-20T06:00:37;100270.66;;;13.46;57.88
15678;BME280;7939;50.814;6.368;2023-03-20T06:03:04;100264.63;;;13.44;57.56
15678;BME280;7939;50.814;6.368;2023-03-20T06:05:32;100274.06;;;13.43;57.02
15678;BME280;7939;50.814;6.368;2023-03-20T06:07:58;100262.94;;;13.43;57.47
15678;BME280;7939;50.814;6.368;2023-03-20T06:10:26;100258.66;;;13.42;57.92
15678;BME280;7939;50.814;6.368;2023-03-20T06:12:54;100256.09;;;13.42;57.74
15678;BME280;7939;50.814;6.368;2023-03-20T06:15:21;100251.84;;;13.39;56.94
15678;BME280;7939;50.814;6.368;2023-03-20T06:17:47;100251.84;;;13.39;57.22
15678;BME280;7939;50.814;6.368;2023-03-20T06:20:15;100258.69;;;13.40;57.41
15678;BME280;7939;50.814;6.368;2023-03-20T06:22:41;100266.41;;;13.39;58.08
15678;BME280;7939;50.814;6.368;2023-03-20T06:25:08;100261.28;;;13.39;58.48
15678;BME280;7939;50.814;6.368;2023-03-20T06:27:37;100265.50;;;13.38;57.40
15678;BME280;7939;50.814;6.368;2023-03-20T06:30:04;100260.41;;;13.37;57.86
15678;BME280;7939;50.814;6.368;2023-03-20T06:32:32;100253.53;;;13.37;58.19
15678;BME280;7939;50.814;6.368;2023-03-20T06:34:58;100251.00;;;13.36;57.06
15678;BME280;7939;50.814;6.368;2023-03-20T06:37:25;100244.16;;;13.35;57.93
15678;BME280;7939;50.814;6.368;2023-03-20T06:39:51;100243.31;;;13.34;57.72
15678;BME280;7939;50.814;6.368;2023-03-20T06:42:18;100247.59;;;13.34;57.47
15678;BME280;7939;50.814;6.368;2023-03-20T06:44:46;100250.16;;;13.34;57.82
15678;BME280;7939;50.814;6.368;2023-03-20T06:47:12;100245.88;;;13.33;58.03
15678;BME280;7939;50.814;6.368;2023-03-20T06:49:39;100266.41;;;13.33;57.00
15678;BME280;7939;50.814;6.368;2023-03-20T06:52:06;100269.81;;;13.32;56.50
15678;BME280;7939;50.814;6.368;2023-03-20T06:54:33;100277.53;;;13.32;56.52
15678;BME280;7939;50.814;6.368;2023-03-20T06:56:59;100280.09;;;13.30;57.79
15678;BME280;7939;50.814;6.368;2023-03-20T06:59:26;100286.09;;;13.28;56.98
15678;BME280;7939;50.814;6.368;2023-03-20T07:01:54;100298.94;;;13.28;57.53
15678;BME280;7939;50.814;6.368;2023-03-20T07:04:21;100305.78;;;13.27;56.89
15678;BME280;7939;50.814;6.368;2023-03-20T07:06:47;100299.81;;;13.27;57.45
15678;BME280;7939;50.814;6.368;2023-03-20T07:09:14;100302.38;;;13.27;57.42
15678;BME280;7939;50.814;6.368;2023-03-20T07:11:42;100308.34;;;13.27;57.57
15678;BME280;7939;50.814;6.368;2023-03-20T07:14:09;100300.63;;;13.26;56.42
15678;BME280;7939;50.814;6.368;2023-03-20T07:16:35;100300.63;;;13.26;57.39
15678;BME280;7939;50.814;6.368;2023-03-20T07:19:03;100310.94;;;13.27;57.25
15678;BME280;7939;50.814;6.368;2023-03-20T07:21:30;100309.19;;;13.26;56.60
15678;BME280;7939;50.814;6.368;2023-03-20T07:23:57;100316.03;;;13.26;56.86
15678;BME280;7939;50.814;6.368;2023-03-20T07:26:24;100311.75;;;13.25;56.60
15678;BME280;7939;50.814;6.368;2023-03-20T07:28:51;100316.91;;;13.25;56.50
15678;BME280;7939;50.814;6.368;2023-03-20T07:31:20;100328.03;;;13.27;57.23
15678;BME280;7939;50.814;6.368;2023-03-20T07:33:47;100317.78;;;13.27;56.51
15678;BME280;7939;50.814;6.368;2023-03-20T07:36:15;100332.28;;;13.26;56.55
15678;BME280;7939;50.814;6.368;2023-03-20T07:38:41;100332.28;;;13.26;56.70
15678;BME280;7939;50.814;6.368;2023-03-20T07:41:08;100334.00;;;13.26;57.37
15678;BME280;7939;50.814;6.368;2023-03-20T07:43:35;100336.56;;;13.26;57.10
15678;BME280;7939;50.814;6.368;2023-03-20T07:46:02;100323.75;;;13.26;56.95
15678;BME280;7939;50.814;6.368;2023-03-20T07:48:29;100333.16;;;13.23;56.49
15678;BME280;7939;50.814;6.368;2023-03-20T07:50:56;100328.91;;;13.22;57.09
15678;BME280;7939;50.814;6.368;2023-03-20T07:53:24;100327.19;;;13.23;57.57
15678;BME280;7939;50.814;6.368;2023-03-20T07:55:51;100328.88;;;13.24;56.93
15678;BME280;7939;50.814;6.368;2023-03-20T07:58:17;100339.13;;;13.26;56.97
15678;BME280;7939;50.814;6.368;2023-03-20T08:00:44;100330.59;;;13.23;56.60
15678;BME280;7939;50.814;6.368;2023-03-20T08:03:11;100334.03;;;13.21;55.92
15678;BME280;7939;50.814;6.368;2023-03-20T08:05:38;100345.16;;;13.21;56.07
15678;BME280;7939;50.814;6.368;2023-03-20T08:08:05;100342.53;;;13.18;56.53
15678;BME280;7939;50.814;6.368;2023-03-20T08:10:33;100339.13;;;13.16;55.47
15678;BME280;7939;50.814;6.368;2023-03-20T08:12:59;100346.81;;;13.19;57.02
15678;BME280;7939;50.814;6.368;2023-03-20T08:15:26;100363.94;;;13.19;56.61
15678;BME280;7939;50.814;6.368;2023-03-20T08:17:52;100356.25;;;13.16;56.49
15678;BME280;7939;50.814;6.368;2023-03-20T08:20:22;100353.66;;;13.17;56.69
15678;BME280;7939;50.814;6.368;2023-03-20T08:22:48;100353.66;;;13.17;56.44
15678;BME280;7939;50.814;6.368;2023-03-20T08:25:15;100355.38;;;13.17;55.42
15678;BME280;7939;50.814;6.368;2023-03-20T08:27:43;100344.28;;;13.15;56.56
15678;BME280;7939;50.814;6.368;2023-03-20T08:30:11;100348.56;;;13.14;56.01
15678;BME280;7939;50.814;6.368;2023-03-20T08:32:38;100349.41;;;13.15;56.17
15678;BME280;7939;50.814;6.368;2023-03-20T08:35:07;100356.25;;;13.14;56.07
15678;BME280;7939;50.814;6.368;2023-03-20T08:37:34;100349.41;;;13.15;56.89
15678;BME280;7939;50.814;6.368;2023-03-20T08:40:02;100341.72;;;13.15;56.51
15678;BME280;7939;50.814;6.368;2023-03-20T08:42:30;100352.84;;;13.20;56.73
15678;BME280;7939;50.814;6.368;2023-03-20T08:44:58;100349.41;;;13.16;56.28
15678;BME280;7939;50.814;6.368;2023-03-20T08:47:25;100353.69;;;13.16;56.43
15678;BME280;7939;50.814;6.368;2023-03-20T08:49:52;100356.22;;;13.17;56.40
15678;BME280;7939;50.814;6.368;2023-03-20T08:52:18;100353.66;;;13.19;55.67
15678;BME280;7939;50.814;6.368;2023-03-20T08:54:45;100357.94;;;13.18;55.94
15678;BME280;7939;50.814;6.368;2023-03-20T08:57:11;100356.25;;;13.16;54.71
15678;BME280;7939;50.814;6.368;2023-03-20T08:59:38;100368.22;;;13.12;55.11
15678;BME280;7939;50.814;6.368;2023-03-20T09:02:08;100362.22;;;13.13;54.93
15678;BME280;7939;50.814;6.368;2023-03-20T09:04:36;100363.94;;;13.16;54.64
15678;BME280;7939;50.814;6.368;2023-03-20T09:07:02;100366.50;;;13.13;54.90
15678;BME280;7939;50.814;6.368;2023-03-20T09:09:29;100367.38;;;13.16;54.86
15678;BME280;7939;50.814;6.368;2023-03-20T09:11:57;100366.50;;;13.16;54.74
15678;BME280;7939;50.814;6.368;2023-03-20T09:14:25;100363.94;;;13.11;54.39
15678;BME280;7939;50.814;6.368;2023-03-20T09:16:53;100367.38;;;13.15;54.62
15678;BME280;7939;50.814;6.368;2023-03-20T09:19:21;100363.94;;;13.16;54.96
15678;BME280;7939;50.814;6.368;2023-03-20T09:21:48;100368.22;;;13.20;54.87
15678;BME280;7939;50.814;6.368;2023-03-20T09:24:15;100368.19;;;13.18;53.87
15678;BME280;7939;50.814;6.368;2023-03-20T09:26:41;100370.78;;;13.17;54.67
15678;BME280;7939;50.814;6.368;2023-03-20T09:29:08;100366.50;;;13.16;53.68
15678;BME280;7939;50.814;6.368;2023-03-20T09:31:35;100367.38;;;13.16;53.80
15678;BME280;7939;50.814;6.368;2023-03-20T09:34:02;100367.38;;;13.15;53.67
15678;BME280;7939;50.814;6.368;2023-03-20T09:36:30;100372.47;;;13.18;54.16
15678;BME280;7939;50.814;6.368;2023-03-20T09:38:57;100369.91;;;13.18;54.31
15678;BME280;7939;50.814;6.368;2023-03-20T09:41:25;100361.38;;;13.17;53.72
15678;BME280;7939;50.814;6.368;2023-03-20T09:44:03;100368.19;;;13.18;54.07
15678;BME280;7939;50.814;6.368;2023-03-20T09:46:48;100367.34;;;13.18;52.30
15678;BME280;7939;50.814;6.368;2023-03-20T09:49:27;100365.63;;;13.18;53.34
15678;BME280;7939;50.814;6.368;2023-03-20T09:51:59;100373.38;;;13.14;52.02
15678;BME280;7939;50.814;6.368;2023-03-20T09:54:28;100375.94;;;13.14;52.82
15678;BME280;7939;50.814;6.368;2023-03-20T09:57:09;100369.91;;;13.13;51.94
15678;BME280;7939;50.814;6.368;2023-03-20T09:59:41;100373.38;;;13.08;52.87
15678;BME280;7939;50.814;6.368;2023-03-20T10:02:13;100376.78;;;13.08;52.59
15678;BME280;7939;50.814;6.368;2023-03-20T10:04:41;100377.63;;;13.09;53.40
15678;BME280;7939;50.814;6.368;2023-03-20T10:07:13;100372.50;;;13.12;53.25
15678;BME280;7939;50.814;6.368;2023-03-20T10:09:43;100380.19;;;13.13;53.34
15678;BME280;7939;50.814;6.368;2023-03-20T10:12:27;100368.22;;;13.14;53.47
15678;BME280;7939;50.814;6.368;2023-03-20T10:15:00;100366.50;;;13.16;52.83
15678;BME280;7939;50.814;6.368;2023-03-20T10:17:41;100373.34;;;13.15;53.19
15678;BME280;7939;50.814;6.368;2023-03-20T10:20:12;100363.94;;;13.13;52.86
15678;BME280;7939;50.814;6.368;2023-03-20T10:22:45;100363.94;;;13.16;53.67
15678;BME280;7939;50.814;6.368;2023-03-20T10:25:22;100366.53;;;13.14;53.50
15678;BME280;7939;50.814;6.368;2023-03-20T10:27:52;100365.66;;;13.15;53.88
15678;BME280;7939;50.814;6.368;2023-03-20T10:30:27;100370.78;;;13.17;52.79
15678;BME280;7939;50.814;6.368;2023-03-20T10:33:06;100364.78;;;13.16;52.41
15678;BME280;7939;50.814;6.368;2023-03-20T10:35:38;100363.94;;;13.19;53.64
15678;BME280;7939;50.814;6.368;2023-03-20T10:38:25;100368.19;;;13.18;54.54
15678;BME280;7939;50.814;6.368;2023-03-20T10:40:57;100372.53;;;13.21;54.05
15678;BME280;7939;50.814;6.368;2023-03-20T10:43:27;100364.84;;;13.21;53.26
15678;BME280;7939;50.814;6.368;2023-03-20T10:46:00;100364.84;;;13.21;54.14
15678;BME280;7939;50.814;6.368;2023-03-20T10:48:30;100370.78;;;13.20;52.56
15678;BME280;7939;50.814;6.368;2023-03-20T10:51:00;100369.13;;;13.20;53.71
15678;BME280;7939;50.814;6.368;2023-03-20T10:53:35;100368.19;;;13.18;52.82
15678;BME280;7939;50.814;6.368;2023-03-20T10:56:06;100364.84;;;13.21;53.18
15678;BME280;7939;50.814;6.368;2023-03-20T10:58:36;100358.84;;;13.22;52.65
15678;BME280;7939;50.814;6.368;2023-03-20T11:01:04;100369.06;;;13.16;52.18
15678;BME280;7939;50.814;6.368;2023-03-20T11:03:32;100368.22;;;13.17;52.57
15678;BME280;7939;50.814;6.368;2023-03-20T11:06:02;100361.38;;;13.16;52.56
15678;BME280;7939;50.814;6.368;2023-03-20T11:08:35;100356.22;;;13.13;51.52
15678;BME280;7939;50.814;6.368;2023-03-20T11:11:03;100359.69;;;13.15;51.72
15678;BME280;7939;50.814;6.368;2023-03-20T11:13:32;100357.09;;;13.15;52.65
15678;BME280;7939;50.814;6.368;2023-03-20T11:16:15;100354.53;;;13.16;52.34
15678;BME280;7939;50.814;6.368;2023-03-20T11:18:43;100357.13;;;13.09;51.99
15678;BME280;7939;50.814;6.368;2023-03-20T11:21:14;100354.53;;;13.10;52.47
15678;BME280;7939;50.814;6.368;2023-03-20T11:23:43;100349.41;;;13.10;53.20
15678;BME280;7939;50.814;6.368;2023-03-20T11:26:12;100343.44;;;13.14;52.85
15678;BME280;7939;50.814;6.368;2023-03-20T11:28:46;100326.28;;;13.13;52.93
15678;BME280;7939;50.814;6.368;2023-03-20T11:31:18;100346.00;;;13.08;52.96
15678;BME280;7939;50.814;6.368;2023-03-20T11:33:50;100334.88;;;13.11;53.97
15678;BME280;7939;50.814;6.368;2023-03-20T11:36:23;100343.41;;;13.07;54.11
15678;BME280;7939;50.814;6.368;2023-03-20T11:38:53;100333.16;;;12.99;53.40
15678;BME280;7939;50.814;6.368;2023-03-20T11:41:25;100339.16;;;13.00;54.38
15678;BME280;7939;50.814;6.368;2023-03-20T11:43:52;100329.75;;;13.02;54.54
15678;BME280;7939;50.814;6.368;2023-03-20T11:46:20;100335.75;;;13.02;54.12
15678;BME280;7939;50.814;6.368;2023-03-20T11:49:01;100313.50;;;13.04;54.21
15678;BME280;7939;50.814;6.368;2023-03-20T11:51:29;100314.34;;;13.08;54.97
15678;BME280;7939;50.814;6.368;2023-03-20T11:54:01;100317.75;;;13.10;55.18
15678;BME280;7939;50.814;6.368;2023-03-20T11:56:30;100318.63;;;13.10;54.89
15678;BME280;7939;50.814;6.368;2023-03-20T11:59:01;100306.63;;;13.12;55.01
15678;BME280;7939;50.814;6.368;2023-03-20T12:01:37;100297.22;;;13.13;55.76
15678;BME280;7939;50.814;6.368;2023-03-20T12:04:09;100296.38;;;13.15;55.37
15678;BME280;7939;50.814;6.368;2023-03-20T12:06:42;100292.97;;;13.15;54.77
15678;BME280;7939;50.814;6.368;2023-03-20T12:09:22;100295.50;;;13.18;54.97
15678;BME280;7939;50.814;6.368;2023-03-20T12:11:52;100294.66;;;13.14;55.23
15678;BME280;7939;50.814;6.368;2023-03-20T12:14:25;100288.69;;;13.14;55.75
15678;BME280;7939;50.814;6.368;2023-03-20T12:17:19;100285.22;;;13.13;55.62
15678;BME280;7939;50.814;6.368;2023-03-20T12:19:52;100272.44;;;13.10;55.92
15678;BME280;7939;50.814;6.368;2023-03-20T12:22:24;100276.72;;;13.14;55.85
15678;BME280;7939;50.814;6.368;2023-03-20T12:25:00;100268.13;;;13.17;55.20
15678;BME280;7939;50.814;6.368;2023-03-20T12:27:32;100268.97;;;13.19;55.75
15678;BME280;7939;50.814;6.368;2023-03-20T12:30:04;100270.72;;;13.21;56.37
15678;BME280;7939;50.814;6.368;2023-03-20T12:32:40;100268.16;;;13.21;55.46
15678;BME280;7939;50.814;6.368;2023-03-20T12:35:12;100260.44;;;13.23;55.71
15678;BME280;7939;50.814;6.368;2023-03-20T12:37:40;100265.56;;;13.20;56.10
15678;BME280;7939;50.814;6.368;2023-03-20T12:40:15;100253.56;;;13.19;56.36
15678;BME280;7939;50.814;6.368;2023-03-20T12:42:56;100246.75;;;13.18;54.97
15678;BME280;7939;50.814;6.368;2023-03-20T12:45:32;100246.72;;;13.19;55.51
15678;BME280;7939;50.814;6.368;2023-03-20T12:48:11;100250.19;;;13.21;56.53
15678;BME280;7939;50.814;6.368;2023-03-20T12:50:48;100236.50;;;13.21;55.38
15678;BME280;7939;50.814;6.368;2023-03-20T12:53:29;100232.22;;;13.21;55.83
15678;BME280;7939;50.814;6.368;2023-03-20T12:56:12;100233.06;;;13.23;56.26
15678;BME280;7939;50.814;6.368;2023-03-20T12:58:44;100228.78;;;13.27;56.28
15678;BME280;7939;50.814;6.368;2023-03-20T13:01:16;100230.50;;;13.28;55.49
15678;BME280;7939;50.814;6.368;2023-03-20T13:03:59;100215.09;;;13.30;55.62
15678;BME280;7939;50.814;6.368;2023-03-20T13:06:36;100220.19;;;13.31;55.29
15678;BME280;7939;50.814;6.368;2023-03-20T13:09:27;100217.66;;;13.33;55.14
15678;BME280;7939;50.814;6.368;2023-03-20T13:12:03;100213.38;;;13.33;55.39
15678;BME280;7939;50.814;6.368;2023-03-20T13:14:37;100227.03;;;13.31;55.71
15678;BME280;7939;50.814;6.368;2023-03-20T13:17:15;100222.75;;;13.31;55.69
15678;BME280;7939;50.814;6.368;2023-03-20T13:19:50;100221.91;;;13.34;55.55